Time;durP1;ratioP1;P1;durP2;ratioP2;P2;SDS_P1;SDS_P2;PMS_P1;PMS_P2;Temp;Humidity;BMP_temperature;BMP_pressure;BME280_temperature;BME280_humidity;BME280_pressure;Samples;Min_cycle;Max_cycle;Signal;HPM_P1;HPM_P2
2021/06/08 00:00:30;;;;;;;19.33;14.97;;;19.30;99.90;;;;;;5011246;28;20658;-82
2021/06/08 00:02:55;;;;;;;17.67;15.77;;;19.40;99.90;;;;;;5013792;28;20547;-81
2021/06/08 00:05:22;;;;;;;17.47;14.20;;;19.40;99.90;;;;;;5007385;28;20185;-81
2021/06/08 00:07:48;;;;;;;15.30;13.80;;;19.40;99.90;;;;;;5010976;28;20201;-81
2021/06/08 00:10:14;;;;;;;16.30;14.60;;;19.50;99.90;;;;;;5007420;28;20515;-79
2021/06/08 00:12:40;;;;;;;14.17;12.77;;;19.50;99.90;;;;;;5007606;28;20464;-84
2021/06/08 00:15:08;;;;;;;16.17;14.47;;;19.50;99.90;;;;;;5029375;28;20482;-83
2021/06/08 00:17:33;;;;;;;14.40;13.00;;;19.40;99.90;;;;;;5016541;28;20466;-80
2021/06/08 00:19:59;;;;;;;14.37;12.50;;;19.30;99.90;;;;;;5017283;28;20444;-81
2021/06/08 00:22:26;;;;;;;12.50;11.30;;;19.50;99.90;;;;;;5020556;28;20253;-82
2021/06/08 00:24:52;;;;;;;12.80;11.70;;;19.70;99.90;;;;;;5012185;28;20424;-81
2021/06/08 00:27:18;;;;;;;13.20;11.80;;;19.70;99.90;;;;;;5014039;28;20436;-81
2021/06/08 00:29:44;;;;;;;13.10;11.90;;;19.70;99.90;;;;;;5021773;28;20992;-79
2021/06/08 00:32:09;;;;;;;11.50;10.37;;;19.70;99.90;;;;;;5008120;28;20440;-80
2021/06/08 00:34:35;;;;;;;13.27;11.97;;;19.60;99.90;;;;;;5008291;28;20268;-78
2021/06/08 00:37:01;;;;;;;13.37;12.07;;;19.50;99.90;;;;;;5005983;28;20197;-80
2021/06/08 00:39:27;;;;;;;14.10;12.70;;;19.40;99.90;;;;;;4989185;28;20200;-81
2021/06/08 00:41:52;;;;;;;13.47;12.07;;;19.30;99.90;;;;;;5010442;28;20219;-80
2021/06/08 00:44:18;;;;;;;14.30;12.80;;;19.30;99.90;;;;;;5022770;28;20189;-82
2021/06/08 00:46:46;;;;;;;14.17;12.67;;;19.30;99.90;;;;;;5009899;28;20682;-81
2021/06/08 00:49:12;;;;;;;12.70;11.40;;;19.40;99.90;;;;;;5022156;28;20216;-81
2021/06/08 00:51:39;;;;;;;14.30;12.90;;;19.20;99.90;;;;;;5006500;28;20519;-79
2021/06/08 00:54:11;;;;;;;14.90;13.50;;;19.30;99.90;;;;;;5008637;28;20493;-82
2021/06/08 00:56:41;;;;;;;13.63;12.27;;;19.30;99.90;;;;;;5023624;28;20511;-78
2021/06/08 00:59:08;;;;;;;15.20;13.53;;;19.30;99.90;;;;;;5006231;28;21250;-79
2021/06/08 01:01:34;;;;;;;14.17;12.87;;;19.20;99.90;;;;;;5008852;28;20436;-82
2021/06/08 01:04:08;;;;;;;14.63;12.90;;;19.30;99.90;;;;;;5007446;28;20440;-82
2021/06/08 01:06:35;;;;;;;15.23;13.73;;;19.40;99.90;;;;;;5006945;28;20444;-81
2021/06/08 01:09:02;;;;;;;15.20;13.70;;;19.40;99.90;;;;;;5007538;28;20530;-77
2021/06/08 01:11:28;;;;;;;15.57;14.07;;;19.30;99.90;;;;;;5010317;28;20524;-82
2021/06/08 01:13:53;;;;;;;18.47;15.60;;;19.30;99.90;;;;;;5004033;28;20568;-79
2021/06/08 01:16:19;;;;;;;17.97;15.57;;;19.30;99.90;;;;;;5005593;28;20259;-81
2021/06/08 01:18:45;;;;;;;17.30;15.53;;;19.30;99.90;;;;;;5005254;28;20708;-79
2021/06/08 01:21:12;;;;;;;17.20;15.50;;;19.10;99.90;;;;;;5010992;28;20196;-80
2021/06/08 01:23:39;;;;;;;16.87;15.17;;;19.10;99.90;;;;;;5005104;28;20599;-80
2021/06/08 01:26:06;;;;;;;17.07;15.33;;;19.20;99.90;;;;;;5003854;28;20460;-80
2021/06/08 01:28:33;;;;;;;15.50;13.70;;;19.20;99.90;;;;;;5007007;28;20593;-79
2021/06/08 01:31:22;;;;;;;23.53;16.20;;;19.20;99.90;;;;;;5005844;28;20471;-80
2021/06/08 01:33:48;;;;;;;16.77;14.93;;;19.30;99.90;;;;;;5001752;28;20564;-81
2021/06/08 01:36:18;;;;;;;18.20;16.23;;;19.10;99.90;;;;;;5013687;28;20896;-79
2021/06/08 01:38:46;;;;;;;17.37;15.57;;;19.00;99.90;;;;;;5003861;28;20232;-79
2021/06/08 01:41:13;;;;;;;21.07;17.30;;;19.00;99.90;;;;;;5005402;28;20451;-80
2021/06/08 01:43:42;;;;;;;19.20;16.47;;;18.90;99.90;;;;;;5011256;28;20522;-81
2021/06/08 01:46:09;;;;;;;18.57;16.33;;;18.90;99.90;;;;;;5009477;28;20511;-81
2021/06/08 01:48:35;;;;;;;18.53;16.63;;;19.00;99.90;;;;;;5006582;28;20468;-81
2021/06/08 01:51:26;;;;;;;20.63;18.03;;;18.90;99.90;;;;;;5009504;28;20951;-79
2021/06/08 01:53:55;;;;;;;19.17;15.93;;;18.90;99.90;;;;;;5021941;28;20433;-79
2021/06/08 01:56:23;;;;;;;19.30;17.30;;;19.00;99.90;;;;;;5007777;28;20485;-79
2021/06/08 01:59:24;;;;;;;21.73;18.90;;;19.00;99.90;;;;;;5017882;28;20469;-80
2021/06/08 02:02:10;;;;;;;19.60;17.60;;;18.80;99.90;;;;;;5012348;28;20859;-79
2021/06/08 02:04:49;;;;;;;24.23;18.53;;;19.00;99.90;;;;;;5009154;28;20831;-82
2021/06/08 02:07:43;;;;;;;17.73;16.03;;;19.20;99.90;;;;;;5007707;28;21411;-82
2021/06/08 02:11:14;;;;;;;19.10;17.00;;;19.10;99.90;;;;;;5008090;28;20482;-80
2021/06/08 02:14:02;;;;;;;18.47;16.40;;;19.20;99.90;;;;;;4939376;28;20478;-81
2021/06/08 02:16:43;;;;;;;21.17;16.87;;;19.20;99.90;;;;;;4947339;28;20461;-78
2021/06/08 02:19:10;;;;;;;18.00;15.73;;;19.00;99.90;;;;;;4988471;28;20456;-78
2021/06/08 02:21:43;;;;;;;20.00;17.00;;;19.00;99.90;;;;;;5005736;28;20446;-81
2021/06/08 02:24:11;;;;;;;18.20;16.30;;;18.90;99.90;;;;;;5006399;28;20971;-79
2021/06/08 02:26:42;;;;;;;16.43;14.70;;;19.10;99.90;;;;;;5007788;28;20466;-78
2021/06/08 02:29:08;;;;;;;17.27;15.47;;;19.20;99.90;;;;;;5009332;28;20471;-80
2021/06/08 02:31:35;;;;;;;18.97;15.30;;;19.10;99.90;;;;;;5003502;28;20475;-81
2021/06/08 02:34:03;;;;;;;17.33;15.53;;;19.10;99.90;;;;;;5010486;28;20985;-78
2021/06/08 02:36:29;;;;;;;18.77;16.97;;;19.00;99.90;;;;;;5010924;28;20519;-81
2021/06/08 02:38:56;;;;;;;19.27;17.17;;;18.90;99.90;;;;;;5003838;28;20475;-81
2021/06/08 02:41:23;;;;;;;17.50;15.70;;;18.90;99.90;;;;;;5000058;28;20459;-81
2021/06/08 02:43:51;;;;;;;18.90;16.40;;;18.70;99.90;;;;;;5006018;28;20424;-81
2021/06/08 02:46:18;;;;;;;18.43;16.53;;;18.80;99.90;;;;;;5004892;28;20443;-81
2021/06/08 02:48:45;;;;;;;21.97;16.67;;;18.90;99.90;;;;;;5010126;28;20833;-79
2021/06/08 02:51:12;;;;;;;18.63;16.80;;;18.90;99.90;;;;;;5009666;28;20428;-80
2021/06/08 02:53:39;;;;;;;17.67;15.77;;;19.00;99.90;;;;;;5006884;28;20435;-81
2021/06/08 02:56:06;;;;;;;18.30;16.37;;;19.10;99.90;;;;;;5006618;28;20956;-80
2021/06/08 02:58:33;;;;;;;19.53;17.30;;;19.00;99.90;;;;;;5006184;28;20469;-82
2021/06/08 03:00:59;;;;;;;20.07;15.20;;;18.80;99.90;;;;;;4990927;28;20539;-84
2021/06/08 03:03:32;;;;;;;16.57;14.80;;;18.70;99.90;;;;;;5013221;28;20441;-81
2021/06/08 03:06:04;;;;;;;16.97;15.33;;;18.90;99.90;;;;;;5011301;28;20227;-82
2021/06/08 03:08:38;;;;;;;20.20;17.30;;;18.80;99.90;;;;;;5010474;28;20511;-81
2021/06/08 03:11:08;;;;;;;21.87;19.40;;;18.80;99.90;;;;;;4995321;28;20455;-80
2021/06/08 03:13:36;;;;;;;20.00;17.30;;;18.80;99.90;;;;;;5007427;28;20977;-80
2021/06/08 03:16:03;;;;;;;24.80;18.43;;;18.90;99.90;;;;;;4994140;28;20454;-79
2021/06/08 03:18:31;;;;;;;22.73;17.80;;;19.00;99.90;;;;;;5006353;28;20488;-79
2021/06/08 03:21:03;;;;;;;22.47;18.90;;;19.00;99.90;;;;;;5004768;28;20443;-82
2021/06/08 03:23:36;;;;;;;19.97;17.87;;;19.00;99.90;;;;;;5021042;28;20535;-79
2021/06/08 03:26:04;;;;;;;20.13;18.10;;;19.00;99.90;;;;;;5009010;28;20439;-81
2021/06/08 03:28:32;;;;;;;22.00;19.00;;;18.90;99.90;;;;;;5005231;28;21195;-80
2021/06/08 03:30:58;;;;;;;19.97;17.77;;;18.90;99.90;;;;;;5008200;28;21516;-80
2021/06/08 03:33:25;;;;;;;22.90;19.67;;;19.10;99.90;;;;;;5016398;28;20435;-79
2021/06/08 03:35:52;;;;;;;22.77;18.27;;;19.10;99.90;;;;;;5016738;28;20462;-80
2021/06/08 03:38:20;;;;;;;26.37;19.40;;;19.10;99.90;;;;;;5016185;28;20479;-81
2021/06/08 03:40:46;;;;;;;22.10;19.80;;;19.30;99.90;;;;;;5015078;28;20428;-79
2021/06/08 03:43:14;;;;;;;23.10;19.50;;;19.30;99.90;;;;;;5013655;28;20451;-80
2021/06/08 03:45:40;;;;;;;20.67;18.57;;;19.40;99.90;;;;;;4997673;28;20459;-79
2021/06/08 03:48:06;;;;;;;20.07;18.00;;;19.30;99.90;;;;;;5015080;28;20537;-81
2021/06/08 03:50:32;;;;;;;21.20;19.03;;;19.10;99.90;;;;;;5014075;28;20484;-79
2021/06/08 03:53:02;;;;;;;27.33;19.90;;;19.10;99.90;;;;;;4998642;28;20458;-81
2021/06/08 03:55:28;;;;;;;20.27;18.17;;;19.20;99.90;;;;;;5006284;28;20435;-79
2021/06/08 03:57:55;;;;;;;25.23;21.77;;;19.30;99.90;;;;;;5012691;28;20448;-79
2021/06/08 04:00:23;;;;;;;22.00;19.67;;;19.30;99.90;;;;;;5005474;28;20598;-82
2021/06/08 04:02:50;;;;;;;21.13;18.77;;;19.30;99.90;;;;;;5006328;28;20506;-82
2021/06/08 04:05:17;;;;;;;20.00;17.90;;;19.30;99.90;;;;;;5009814;28;20423;-79
2021/06/08 04:07:45;;;;;;;21.17;18.07;;;19.30;99.90;;;;;;5006455;28;20470;-82
2021/06/08 04:10:18;;;;;;;21.00;18.80;;;19.40;99.90;;;;;;5007418;28;20492;-82
2021/06/08 04:12:44;;;;;;;20.33;18.07;;;19.40;99.90;;;;;;5010737;28;20518;-82
2021/06/08 04:15:11;;;;;;;25.10;19.80;;;19.50;99.90;;;;;;5006113;28;20462;-82
2021/06/08 04:17:37;;;;;;;24.00;19.40;;;19.60;99.90;;;;;;5007811;28;20543;-81
2021/06/08 04:20:09;;;;;;;22.10;18.90;;;19.50;99.90;;;;;;5012161;28;20537;-79
2021/06/08 04:22:36;;;;;;;23.07;19.70;;;19.50;99.90;;;;;;5004926;28;20485;-82
2021/06/08 04:25:04;;;;;;;23.27;20.17;;;19.50;99.90;;;;;;5010197;28;20865;-82
2021/06/08 04:27:30;;;;;;;24.03;19.90;;;19.50;99.90;;;;;;5011823;28;20460;-82
2021/06/08 04:29:57;;;;;;;20.80;18.60;;;19.60;99.90;;;;;;5009959;28;20559;-81
2021/06/08 04:32:23;;;;;;;21.53;19.23;;;19.60;99.90;;;;;;5010290;28;20487;-82
2021/06/08 04:34:54;;;;;;;21.20;19.00;;;19.60;99.90;;;;;;5011626;28;20861;-82
2021/06/08 04:37:20;;;;;;;21.47;19.30;;;19.50;99.90;;;;;;5010205;28;20456;-81
2021/06/08 04:39:47;;;;;;;21.77;19.03;;;19.50;99.90;;;;;;5007652;28;20432;-81
2021/06/08 04:42:15;;;;;;;21.53;19.33;;;19.40;99.90;;;;;;5006256;28;20467;-80
2021/06/08 04:44:45;;;;;;;22.60;19.17;;;19.30;99.90;;;;;;5007819;28;20432;-82
2021/06/08 04:47:12;;;;;;;20.73;18.53;;;19.50;99.90;;;;;;5004492;28;20829;-81
2021/06/08 04:49:39;;;;;;;22.57;19.67;;;19.60;99.90;;;;;;5006548;28;20501;-78
2021/06/08 04:54:50;;;;;;;23.53;20.07;;;19.50;99.90;;;;;;5036592;28;20495;-78
2021/06/08 04:57:17;;;;;;;19.83;17.73;;;19.60;99.90;;;;;;5022854;28;20437;-78
2021/06/08 04:59:51;;;;;;;21.83;19.53;;;19.70;99.90;;;;;;5040426;28;20295;-77
2021/06/08 05:02:40;;;;;;;22.57;19.60;;;19.70;99.90;;;;;;5039058;28;20433;-78
2021/06/08 05:05:16;;;;;;;21.50;18.60;;;19.80;99.90;;;;;;5037789;28;20445;-77
2021/06/08 05:07:48;;;;;;;24.53;20.40;;;19.70;99.90;;;;;;5037963;28;20431;-78
2021/06/08 05:10:16;;;;;;;22.67;19.97;;;19.70;99.90;;;;;;5035998;28;20458;-79
2021/06/08 05:12:44;;;;;;;25.77;19.60;;;19.60;99.90;;;;;;5037497;28;20919;-76
2021/06/08 05:15:13;;;;;;;24.43;19.70;;;19.70;99.90;;;;;;5038025;28;20591;-78
2021/06/08 05:17:40;;;;;;;23.67;20.13;;;19.70;99.90;;;;;;5033041;28;20422;-78
2021/06/08 05:20:09;;;;;;;21.50;19.27;;;19.90;99.90;;;;;;5038031;28;20439;-77
2021/06/08 05:22:35;;;;;;;26.10;18.30;;;19.80;99.90;;;;;;5037551;28;20442;-77
2021/06/08 05:25:01;;;;;;;22.60;20.20;;;19.80;99.90;;;;;;5031949;28;20949;-79
2021/06/08 05:27:29;;;;;;;24.27;21.63;;;19.60;99.90;;;;;;5041359;28;20959;-78
2021/06/08 05:29:59;;;;;;;22.80;20.40;;;19.80;99.90;;;;;;5037724;28;21003;-76
2021/06/08 05:32:25;;;;;;;22.93;20.40;;;20.00;99.90;;;;;;5034122;28;21429;-79
2021/06/08 05:34:51;;;;;;;22.53;20.13;;;20.00;99.90;;;;;;5035134;28;20430;-77
2021/06/08 05:37:18;;;;;;;23.87;20.50;;;20.10;99.90;;;;;;5037432;28;20447;-77
2021/06/08 05:39:45;;;;;;;21.43;19.30;;;20.10;99.90;;;;;;5043081;28;20419;-78
2021/06/08 05:42:17;;;;;;;21.90;19.40;;;20.10;99.90;;;;;;5036821;28;20454;-77
2021/06/08 05:44:43;;;;;;;22.57;20.10;;;20.20;99.90;;;;;;5042472;28;20849;-77
2021/06/08 05:47:08;;;;;;;22.53;19.33;;;20.20;99.90;;;;;;5040461;28;20431;-79
2021/06/08 05:49:37;;;;;;;23.93;21.50;;;20.00;99.90;;;;;;5038249;28;20208;-77
2021/06/08 05:52:07;;;;;;;24.67;20.27;;;20.10;99.90;;;;;;5036830;28;20635;-77
2021/06/08 05:54:34;;;;;;;22.77;20.37;;;20.20;99.90;;;;;;5037862;28;20470;-77
2021/06/08 05:57:01;;;;;;;22.17;19.83;;;20.30;99.90;;;;;;5018264;28;20446;-77
2021/06/08 05:59:27;;;;;;;24.40;21.80;;;20.30;99.90;;;;;;5027881;28;20733;-78
2021/06/08 06:01:54;;;;;;;22.33;19.93;;;20.20;99.90;;;;;;5042169;28;20529;-80
2021/06/08 06:04:24;;;;;;;22.97;20.27;;;20.00;99.90;;;;;;5038316;28;20910;-79
2021/06/08 06:06:50;;;;;;;21.37;19.20;;;20.20;99.90;;;;;;5036637;28;20455;-79
2021/06/08 06:09:22;;;;;;;21.20;18.43;;;20.40;99.90;;;;;;5040483;28;20505;-79
2021/06/08 06:11:51;;;;;;;25.30;20.80;;;20.60;99.90;;;;;;5042993;28;20454;-79
2021/06/08 06:14:22;;;;;;;21.77;19.60;;;20.70;99.90;;;;;;5037298;28;20454;-79
2021/06/08 06:16:52;;;;;;;19.40;17.33;;;20.70;99.90;;;;;;5042571;28;20429;-79
2021/06/08 06:19:18;;;;;;;23.20;19.83;;;20.80;99.90;;;;;;5041763;28;20778;-79
2021/06/08 06:21:45;;;;;;;20.00;18.07;;;20.80;99.90;;;;;;5040457;28;20525;-77
2021/06/08 06:24:11;;;;;;;22.33;19.90;;;20.80;99.90;;;;;;5039036;28;20454;-78
2021/06/08 06:26:39;;;;;;;22.20;19.80;;;20.80;99.90;;;;;;5036314;28;21002;-79
2021/06/08 06:29:05;;;;;;;21.73;19.47;;;20.80;99.90;;;;;;5042091;28;20565;-79
2021/06/08 06:31:32;;;;;;;20.60;18.50;;;20.70;99.90;;;;;;5040476;28;20430;-79
2021/06/08 06:33:58;;;;;;;22.10;19.90;;;20.90;99.90;;;;;;5037479;28;20836;-79
2021/06/08 06:36:27;;;;;;;22.47;20.07;;;21.00;99.90;;;;;;5024543;28;20826;-78
2021/06/08 06:39:08;;;;;;;24.80;19.90;;;21.00;99.90;;;;;;5042629;28;20448;-79
2021/06/08 06:41:40;;;;;;;20.03;17.93;;;21.10;99.90;;;;;;5037298;28;20450;-82
2021/06/08 06:44:07;;;;;;;21.27;18.30;;;21.20;99.90;;;;;;5043292;28;20541;-78
2021/06/08 06:46:33;;;;;;;21.87;18.87;;;21.20;99.90;;;;;;5023906;28;20430;-80
2021/06/08 06:48:59;;;;;;;21.07;18.77;;;21.20;99.90;;;;;;5037163;28;20474;-79
2021/06/08 06:51:25;;;;;;;19.87;17.77;;;21.10;99.90;;;;;;5043891;28;20426;-80
2021/06/08 06:53:55;;;;;;;22.00;19.70;;;21.10;99.90;;;;;;5038901;28;20462;-80
2021/06/08 06:56:22;;;;;;;22.30;19.50;;;21.10;99.90;;;;;;5035289;28;20422;-80
2021/06/08 06:58:49;;;;;;;21.00;18.90;;;21.20;99.90;;;;;;5023811;28;20447;-79
2021/06/08 07:01:19;;;;;;;22.80;20.40;;;21.10;99.90;;;;;;5040944;28;21150;-79
2021/06/08 07:03:46;;;;;;;19.93;18.07;;;21.00;99.90;;;;;;5043718;28;20430;-78
2021/06/08 07:06:13;;;;;;;21.80;19.50;;;21.00;99.90;;;;;;5040257;28;20443;-81
2021/06/08 07:08:39;;;;;;;23.47;19.93;;;21.00;99.90;;;;;;5038557;28;20467;-79
2021/06/08 07:11:06;;;;;;;20.93;18.73;;;21.00;99.90;;;;;;5041858;28;20891;-80
2021/06/08 07:13:32;;;;;;;23.80;18.50;;;21.00;99.90;;;;;;5038155;28;20561;-80
2021/06/08 07:15:58;;;;;;;20.87;18.67;;;21.10;99.90;;;;;;5039243;28;20870;-79
2021/06/08 07:18:24;;;;;;;21.93;19.30;;;21.10;99.90;;;;;;5039199;28;20180;-78
2021/06/08 07:20:50;;;;;;;22.37;20.10;;;21.20;99.90;;;;;;5039767;28;20548;-81
2021/06/08 07:23:20;;;;;;;21.40;18.93;;;21.10;99.90;;;;;;5043527;28;20195;-80
2021/06/08 07:25:50;;;;;;;21.03;18.87;;;21.20;99.90;;;;;;5037787;28;20810;-80
2021/06/08 07:28:18;;;;;;;22.50;20.20;;;21.30;99.90;;;;;;5029018;28;20419;-79
2021/06/08 07:30:43;;;;;;;23.23;19.90;;;21.20;99.90;;;;;;5037263;28;20451;-77
2021/06/08 07:33:26;;;;;;;21.90;19.33;;;21.10;99.90;;;;;;5040649;28;20446;-78
2021/06/08 07:36:29;;;;;;;20.53;18.60;;;21.20;99.90;;;;;;5042597;28;20255;-79
2021/06/08 07:39:21;;;;;;;22.10;19.30;;;21.40;99.90;;;;;;5010958;28;20457;-79
2021/06/08 07:42:12;;;;;;;23.00;20.00;;;21.50;99.90;;;;;;5042266;28;20464;-80
2021/06/08 07:44:58;;;;;;;22.20;19.80;;;21.60;99.90;;;;;;5044125;28;20960;-79
2021/06/08 07:47:26;;;;;;;21.47;19.27;;;21.40;99.90;;;;;;5043950;28;20950;-78
2021/06/08 07:49:54;;;;;;;21.77;19.10;;;21.50;99.90;;;;;;5042706;28;20553;-79
2021/06/08 07:52:21;;;;;;;21.40;19.10;;;21.70;99.90;;;;;;5044899;28;20449;-77
2021/06/08 07:54:48;;;;;;;22.63;20.03;;;21.80;99.90;;;;;;5039095;28;20438;-78
2021/06/08 07:57:14;;;;;;;25.93;21.37;;;21.80;99.90;;;;;;5041485;28;20433;-80
2021/06/08 07:59:41;;;;;;;21.20;19.17;;;21.80;99.90;;;;;;5043336;28;20481;-78
2021/06/08 08:02:09;;;;;;;22.37;20.17;;;21.80;99.90;;;;;;5043998;28;20438;-79
2021/06/08 08:04:49;;;;;;;22.37;20.03;;;21.60;99.90;;;;;;5043138;28;20465;-79
2021/06/08 08:07:19;;;;;;;23.77;21.10;;;21.60;99.90;;;;;;5043592;28;20437;-79
2021/06/08 08:09:45;;;;;;;24.07;21.57;;;21.80;99.90;;;;;;5040067;28;20531;-79
2021/06/08 08:12:12;;;;;;;24.40;22.00;;;21.90;99.90;;;;;;5039928;28;20426;-80
2021/06/08 08:14:38;;;;;;;26.00;23.37;;;21.90;99.90;;;;;;5043750;28;20732;-80
2021/06/08 08:17:03;;;;;;;25.90;21.90;;;22.10;99.90;;;;;;5037411;28;20521;-80
2021/06/08 08:19:30;;;;;;;22.90;20.70;;;22.00;99.90;;;;;;5042052;28;20851;-79
2021/06/08 08:21:56;;;;;;;24.57;22.07;;;22.20;99.90;;;;;;5037994;28;20218;-78
2021/06/08 08:24:23;;;;;;;23.03;20.63;;;22.00;99.90;;;;;;5041543;28;20580;-80
2021/06/08 08:26:48;;;;;;;23.30;20.80;;;21.90;99.90;;;;;;5040433;28;20188;-79
2021/06/08 08:29:14;;;;;;;22.53;20.17;;;22.00;99.90;;;;;;5044894;28;20548;-79
2021/06/08 08:31:41;;;;;;;24.80;20.93;;;22.20;99.90;;;;;;5046500;28;20195;-79
2021/06/08 08:34:07;;;;;;;21.57;19.30;;;22.30;99.90;;;;;;5045212;28;21084;-80
2021/06/08 08:36:36;;;;;;;23.00;20.70;;;22.50;99.90;;;;;;5045709;28;20447;-79
2021/06/08 08:39:05;;;;;;;22.97;20.57;;;22.70;99.90;;;;;;5039234;28;21010;-81
2021/06/08 08:41:31;;;;;;;23.63;21.23;;;22.80;99.90;;;;;;5043021;28;20760;-80
2021/06/08 08:43:56;;;;;;;21.77;19.33;;;23.00;99.90;;;;;;5042066;28;20631;-82
2021/06/08 08:46:23;;;;;;;20.90;18.90;;;23.00;99.90;;;;;;5045256;28;20188;-80
2021/06/08 08:48:54;;;;;;;21.50;18.80;;;23.10;99.90;;;;;;5045948;28;20211;-80
2021/06/08 08:51:22;;;;;;;21.67;19.30;;;23.00;99.90;;;;;;5043642;28;20446;-80
2021/06/08 08:53:49;;;;;;;23.80;21.43;;;23.30;99.90;;;;;;5012067;28;20497;-78
2021/06/08 08:56:15;;;;;;;21.17;19.13;;;23.60;99.90;;;;;;5044284;28;20865;-80
2021/06/08 08:58:42;;;;;;;22.97;20.67;;;23.90;99.90;;;;;;5045326;28;20422;-81
2021/06/08 09:01:08;;;;;;;22.73;20.00;;;23.80;99.90;;;;;;5040371;28;20454;-83
2021/06/08 09:03:36;;;;;;;22.47;20.30;;;23.90;99.90;;;;;;5047637;28;20545;-82
2021/06/08 09:06:02;;;;;;;23.50;19.80;;;24.00;99.90;;;;;;5030488;28;20184;-81
2021/06/08 09:08:28;;;;;;;22.57;20.27;;;24.00;99.90;;;;;;5043015;28;20444;-80
2021/06/08 09:10:54;;;;;;;20.10;18.07;;;24.10;99.90;;;;;;5046453;28;20532;-81
2021/06/08 09:13:21;;;;;;;20.17;18.17;;;24.10;99.90;;;;;;5046082;28;20220;-81
2021/06/08 09:15:48;;;;;;;21.33;19.30;;;24.30;99.90;;;;;;5030740;28;20526;-81
2021/06/08 09:18:15;;;;;;;21.80;19.70;;;24.40;99.90;;;;;;5045621;28;20531;-81
2021/06/08 09:20:41;;;;;;;20.50;18.50;;;24.30;99.90;;;;;;5046983;28;20426;-81
2021/06/08 09:23:08;;;;;;;23.80;19.90;;;23.80;99.90;;;;;;5027434;28;20451;-81
2021/06/08 09:25:37;;;;;;;20.40;18.30;;;23.90;99.90;;;;;;5048492;28;20434;-81
2021/06/08 09:28:25;;;;;;;19.80;17.90;;;24.10;99.90;;;;;;5043025;28;20867;-80
2021/06/08 09:31:00;;;;;;;20.47;18.47;;;24.10;99.90;;;;;;5046615;28;20514;-81
2021/06/08 09:33:28;;;;;;;19.10;17.13;;;23.90;99.90;;;;;;5044328;28;20461;-79
2021/06/08 09:36:08;;;;;;;21.43;19.43;;;23.60;99.90;;;;;;5044705;28;20473;-84
2021/06/08 09:38:47;;;;;;;21.70;19.50;;;23.60;99.90;;;;;;5048250;28;20437;-81
2021/06/08 09:41:17;;;;;;;23.90;19.63;;;23.40;99.90;;;;;;5047131;28;20427;-82
2021/06/08 09:43:50;;;;;;;21.37;19.17;;;23.50;99.90;;;;;;5048171;28;20490;-83
2021/06/08 09:46:16;;;;;;;20.93;18.63;;;23.80;99.90;;;;;;5047520;28;20496;-81
2021/06/08 09:48:51;;;;;;;19.80;17.77;;;24.20;99.90;;;;;;5044702;28;20502;-80
2021/06/08 09:51:17;;;;;;;20.67;17.70;;;24.20;99.90;;;;;;5044790;28;20458;-82
2021/06/08 09:53:43;;;;;;;20.70;18.80;;;24.30;99.90;;;;;;5029671;28;20502;-83
2021/06/08 09:56:10;;;;;;;20.83;18.63;;;24.30;99.90;;;;;;5045818;28;20195;-81
2021/06/08 09:58:42;;;;;;;22.10;19.17;;;24.00;99.90;;;;;;5049994;28;20418;-83
2021/06/08 10:01:21;;;;;;;25.40;19.97;;;24.00;99.90;;;;;;5044427;28;20438;-80
2021/06/08 10:03:58;;;;;;;22.97;20.80;;;23.90;99.90;;;;;;5042477;28;20465;-80
2021/06/08 10:06:34;;;;;;;22.30;20.00;;;23.80;99.90;;;;;;5057711;28;20437;-81
2021/06/08 10:09:05;;;;;;;22.33;19.67;;;23.90;99.90;;;;;;5065114;28;20462;-82
2021/06/08 10:11:34;;;;;;;19.70;17.90;;;23.70;99.90;;;;;;5050519;28;20442;-82
2021/06/08 10:14:14;;;;;;;22.53;20.33;;;23.50;99.90;;;;;;5045739;28;20446;-79
2021/06/08 10:16:41;;;;;;;25.20;20.80;;;23.50;99.90;;;;;;5046718;28;20422;-80
2021/06/08 10:19:07;;;;;;;22.90;20.57;;;23.30;99.90;;;;;;5042081;28;21711;-80
2021/06/08 10:21:38;;;;;;;24.63;21.43;;;23.20;99.90;;;;;;5049504;28;20435;-81
2021/06/08 10:24:07;;;;;;;24.17;21.77;;;23.20;99.90;;;;;;5050910;28;20453;-79
2021/06/08 10:26:35;;;;;;;24.70;22.07;;;22.80;99.90;;;;;;5047863;28;20871;-78
2021/06/08 10:29:06;;;;;;;28.97;25.97;;;22.70;99.90;;;;;;5032650;28;20478;-80
2021/06/08 10:31:34;;;;;;;22.90;20.47;;;22.90;99.90;;;;;;5038925;28;20434;-81
2021/06/08 10:34:04;;;;;;;23.93;21.53;;;23.10;99.90;;;;;;5050483;28;20446;-82
2021/06/08 10:36:30;;;;;;;22.23;19.93;;;23.30;99.90;;;;;;5045535;28;21266;-79
2021/06/08 10:38:56;;;;;;;24.50;21.90;;;23.40;99.90;;;;;;5045877;28;20435;-82
2021/06/08 10:41:22;;;;;;;24.33;21.97;;;23.30;99.90;;;;;;5045322;28;20429;-82
2021/06/08 10:43:47;;;;;;;23.73;21.30;;;23.00;99.90;;;;;;5041993;28;20560;-81
2021/06/08 10:46:44;;;;;;;25.13;22.53;;;23.30;99.90;;;;;;5044935;28;20194;-81
2021/06/08 10:49:10;;;;;;;25.43;22.90;;;23.10;99.90;;;;;;5045920;28;20524;-80
2021/06/08 10:51:37;;;;;;;24.50;21.90;;;22.80;99.90;;;;;;5044434;28;20431;-81
2021/06/08 10:54:16;;;;;;;24.60;22.20;;;22.80;99.90;;;;;;5046037;28;20478;-82
2021/06/08 10:56:59;;;;;;;26.73;22.87;;;22.80;99.90;;;;;;5043546;28;20533;-82
2021/06/08 11:04:55;;;;;;;24.43;21.90;;;22.90;99.90;;;;;;5004166;28;20479;-82
2021/06/08 11:07:42;;;;;;;25.73;22.63;;;22.90;99.90;;;;;;5005324;28;20428;-80
2021/06/08 11:10:27;;;;;;;26.80;23.97;;;22.90;99.90;;;;;;5009057;28;20499;-80
2021/06/08 11:13:07;;;;;;;25.27;22.87;;;23.00;99.90;;;;;;5012060;28;20435;-80
2021/06/08 11:15:34;;;;;;;25.47;22.87;;;23.30;99.90;;;;;;5017540;28;20760;-82
2021/06/08 11:18:00;;;;;;;27.80;24.80;;;23.40;99.90;;;;;;5012732;28;20444;-78
2021/06/08 11:20:29;;;;;;;25.20;22.80;;;23.40;99.90;;;;;;5010931;28;20836;-84
2021/06/08 11:23:00;;;;;;;26.80;23.67;;;23.60;99.90;;;;;;5021494;28;20186;-80
2021/06/08 11:25:30;;;;;;;24.30;22.07;;;23.30;99.90;;;;;;5009886;28;20473;-83
2021/06/08 11:27:59;;;;;;;25.27;22.87;;;23.20;99.90;;;;;;5007344;28;20436;-83
2021/06/08 11:30:32;;;;;;;24.17;21.80;;;23.60;99.90;;;;;;5008373;28;20890;-82
2021/06/08 11:33:00;;;;;;;24.10;21.70;;;23.70;99.90;;;;;;5007757;28;20448;-81
2021/06/08 11:35:41;;;;;;;26.43;22.73;;;23.90;99.90;;;;;;5007915;28;20518;-84
2021/06/08 11:38:08;;;;;;;23.83;21.33;;;24.40;99.90;;;;;;5009075;28;20502;-83
2021/06/08 11:40:40;;;;;;;25.30;21.80;;;24.70;99.90;;;;;;5008752;28;20634;-82
2021/06/08 11:43:15;;;;;;;26.33;22.60;;;24.90;99.90;;;;;;5009170;28;20436;-81
2021/06/08 11:45:43;;;;;;;24.50;22.00;;;25.40;99.90;;;;;;5009497;28;20439;-81
2021/06/08 11:48:32;;;;;;;23.87;21.67;;;25.80;99.90;;;;;;5008245;28;20447;-80
2021/06/08 13:32:21;;;;;;;22.23;20.23;;;28.90;99.90;;;;;;5049759;28;20417;-82
2021/06/08 13:35:14;;;;;;;22.70;20.60;;;28.80;99.90;;;;;;5037387;28;20451;-83
2021/06/08 13:37:54;;;;;;;20.67;18.83;;;28.20;99.90;;;;;;5053042;28;20461;-81
2021/06/08 13:40:32;;;;;;;24.20;21.90;;;27.70;99.90;;;;;;5052638;28;20511;-82
2021/06/08 13:43:07;;;;;;;20.00;18.30;;;27.60;99.90;;;;;;5052918;28;20480;-84
2021/06/08 13:45:40;;;;;;;22.63;20.60;;;27.60;99.90;;;;;;5051581;28;20731;-82
2021/06/08 13:48:30;;;;;;;21.00;18.97;;;27.50;99.90;;;;;;5055441;28;20431;-83
2021/06/08 13:51:13;;;;;;;21.57;19.67;;;27.50;99.90;;;;;;5059472;28;20469;-83
2021/06/08 13:53:45;;;;;;;21.90;19.80;;;27.70;99.90;;;;;;5044559;28;20445;-84
2021/06/08 13:56:25;;;;;;;22.27;20.27;;;28.00;99.90;;;;;;5063753;28;20466;-81
2021/06/08 14:01:57;;;;;;;19.40;17.70;;;30.40;99.90;;;;;;5050071;28;20452;-84
2021/06/08 14:04:24;;;;;;;17.87;16.37;;;32.50;99.90;;;;;;5056209;28;20482;-85
2021/06/08 14:06:56;;;;;;;18.17;16.57;;;33.80;99.90;;;;;;5050222;28;20782;-83
2021/06/08 14:09:23;;;;;;;18.27;16.70;;;35.30;99.90;;;;;;5053895;28;20994;-84
2021/06/08 14:11:54;;;;;;;17.30;15.60;;;36.20;99.90;;;;;;5053461;28;20415;-84
2021/06/08 14:14:34;;;;;;;15.60;14.27;;;37.40;96.70;;;;;;5050277;28;20428;-82
2021/06/08 14:17:26;;;;;;;17.80;16.20;;;37.50;92.90;;;;;;5047624;28;21228;-84
2021/06/08 14:19:53;;;;;;;17.37;15.90;;;36.60;91.70;;;;;;5048234;28;20384;-83
2021/06/08 14:22:20;;;;;;;18.53;16.87;;;36.60;89.80;;;;;;5050048;28;20645;-83
2021/06/08 14:24:46;;;;;;;16.57;15.07;;;36.50;87.20;;;;;;5046703;28;20449;-83
2021/06/08 14:27:14;;;;;;;16.77;15.33;;;36.60;86.40;;;;;;5051191;28;20760;-83
2021/06/08 14:29:42;;;;;;;16.13;14.93;;;37.60;82.90;;;;;;5045987;28;20204;-84
2021/06/08 14:32:11;;;;;;;15.57;14.30;;;38.60;78.20;;;;;;5046352;28;20415;-83
2021/06/08 14:34:37;;;;;;;15.73;14.43;;;39.10;73.50;;;;;;5043929;28;20730;-83